sensor_id;sensor_type;location;lat;lon;timestamp;P1;durP1;ratioP1;P2;durP2;ratioP2
60847;SDS011;46681;47.696;9.140;2023-12-20T00:01:49;2.10;;;2.00;;
60847;SDS011;46681;47.696;9.140;2023-12-20T00:04:15;2.00;;;1.90;;
60847;SDS011;46681;47.696;9.140;2023-12-20T00:06:40;2.10;;;2.00;;
60847;SDS011;46681;47.696;9.140;2023-12-20T00:09:06;2.10;;;2.00;;
60847;SDS011;46681;47.696;9.140;2023-12-20T00:11:31;2.10;;;2.00;;
60847;SDS011;46681;47.696;9.140;2023-12-20T00:14:00;2.20;;;2.10;;
60847;SDS011;46681;47.696;9.140;2023-12-20T00:16:25;2.03;;;1.93;;
60847;SDS011;46681;47.696;9.140;2023-12-20T00:18:52;2.20;;;2.10;;
60847;SDS011;46681;47.696;9.140;2023-12-20T00:21:17;2.30;;;2.20;;
60847;SDS011;46681;47.696;9.140;2023-12-20T00:23:43;3.00;;;2.43;;
60847;SDS011;46681;47.696;9.140;2023-12-20T00:26:08;2.13;;;2.03;;
60847;SDS011;46681;47.696;9.140;2023-12-20T00:28:34;3.00;;;2.70;;
60847;SDS011;46681;47.696;9.140;2023-12-20T00:31:03;2.27;;;2.17;;
60847;SDS011;46681;47.696;9.140;2023-12-20T00:33:28;2.50;;;2.40;;
60847;SDS011;46681;47.696;9.140;2023-12-20T00:35:54;2.27;;;2.17;;
60847;SDS011;46681;47.696;9.140;2023-12-20T00:38:22;2.20;;;2.10;;
60847;SDS011;46681;47.696;9.140;2023-12-20T00:40:47;3.03;;;2.83;;
60847;SDS011;46681;47.696;9.140;2023-12-20T00:43:13;2.57;;;2.37;;
60847;SDS011;46681;47.696;9.140;2023-12-20T00:45:38;2.00;;;1.90;;
60847;SDS011;46681;47.696;9.140;2023-12-20T00:48:04;2.60;;;2.47;;
60847;SDS011;46681;47.696;9.140;2023-12-20T00:50:30;3.37;;;3.17;;
60847;SDS011;46681;47.696;9.140;2023-12-20T00:52:58;2.33;;;2.23;;
60847;SDS011;46681;47.696;9.140;2023-12-20T00:55:23;2.30;;;2.20;;
60847;SDS011;46681;47.696;9.140;2023-12-20T00:57:49;2.40;;;2.20;;
60847;SDS011;46681;47.696;9.140;2023-12-20T01:00:14;2.90;;;2.70;;
60847;SDS011;46681;47.696;9.140;2023-12-20T01:02:40;2.47;;;2.30;;
60847;SDS011;46681;47.696;9.140;2023-12-20T01:05:06;2.67;;;2.47;;
60847;SDS011;46681;47.696;9.140;2023-12-20T01:07:31;2.47;;;2.37;;
60847;SDS011;46681;47.696;9.140;2023-12-20T01:09:57;2.60;;;2.40;;
60847;SDS011;46681;47.696;9.140;2023-12-20T01:12:22;3.13;;;2.30;;
60847;SDS011;46681;47.696;9.140;2023-12-20T01:14:48;1.97;;;1.87;;
60847;SDS011;46681;47.696;9.140;2023-12-20T01:17:13;2.87;;;2.67;;
60847;SDS011;46681;47.696;9.140;2023-12-20T01:19:39;2.73;;;2.53;;
60847;SDS011;46681;47.696;9.140;2023-12-20T01:22:05;2.73;;;2.53;;
60847;SDS011;46681;47.696;9.140;2023-12-20T01:24:30;2.63;;;2.43;;
60847;SDS011;46681;47.696;9.140;2023-12-20T01:26:59;2.63;;;2.43;;
60847;SDS011;46681;47.696;9.140;2023-12-20T01:29:25;2.30;;;2.20;;
60847;SDS011;46681;47.696;9.140;2023-12-20T01:31:51;2.37;;;2.27;;
60847;SDS011;46681;47.696;9.140;2023-12-20T01:34:17;2.70;;;2.50;;
60847;SDS011;46681;47.696;9.140;2023-12-20T01:36:47;2.50;;;2.30;;
60847;SDS011;46681;47.696;9.140;2023-12-20T01:39:13;2.33;;;2.23;;
60847;SDS011;46681;47.696;9.140;2023-12-20T01:41:38;2.30;;;2.20;;
60847;SDS011;46681;47.696;9.140;2023-12-20T01:44:04;3.20;;;2.67;;
60847;SDS011;46681;47.696;9.140;2023-12-20T01:46:29;2.57;;;2.37;;
60847;SDS011;46681;47.696;9.140;2023-12-20T01:48:55;2.37;;;2.27;;
60847;SDS011;46681;47.696;9.140;2023-12-20T01:51:22;2.80;;;2.60;;
60847;SDS011;46681;47.696;9.140;2023-12-20T01:53:50;2.77;;;2.57;;
60847;SDS011;46681;47.696;9.140;2023-12-20T01:56:15;2.97;;;2.77;;
60847;SDS011;46681;47.696;9.140;2023-12-20T01:58:44;2.30;;;2.20;;
60847;SDS011;46681;47.696;9.140;2023-12-20T02:01:15;2.40;;;2.20;;
60847;SDS011;46681;47.696;9.140;2023-12-20T02:03:43;2.80;;;2.53;;
60847;SDS011;46681;47.696;9.140;2023-12-20T02:06:11;2.83;;;2.63;;
60847;SDS011;46681;47.696;9.140;2023-12-20T02:08:37;2.50;;;2.40;;
60847;SDS011;46681;47.696;9.140;2023-12-20T02:11:05;2.73;;;2.53;;
60847;SDS011;46681;47.696;9.140;2023-12-20T02:13:31;2.77;;;2.57;;
60847;SDS011;46681;47.696;9.140;2023-12-20T02:15:56;2.37;;;2.17;;
60847;SDS011;46681;47.696;9.140;2023-12-20T02:18:22;2.90;;;2.70;;
60847;SDS011;46681;47.696;9.140;2023-12-20T02:20:49;2.60;;;2.40;;
60847;SDS011;46681;47.696;9.140;2023-12-20T02:23:14;3.33;;;3.07;;
60847;SDS011;46681;47.696;9.140;2023-12-20T02:25:40;2.83;;;2.63;;
60847;SDS011;46681;47.696;9.140;2023-12-20T02:28:05;2.93;;;2.73;;
60847;SDS011;46681;47.696;9.140;2023-12-20T02:30:31;2.60;;;2.40;;
60847;SDS011;46681;47.696;9.140;2023-12-20T02:32:56;3.13;;;2.70;;
60847;SDS011;46681;47.696;9.140;2023-12-20T02:35:24;2.50;;;2.30;;
60847;SDS011;46681;47.696;9.140;2023-12-20T02:37:53;2.63;;;2.43;;
60847;SDS011;46681;47.696;9.140;2023-12-20T02:40:18;2.30;;;2.13;;
60847;SDS011;46681;47.696;9.140;2023-12-20T02:42:43;2.73;;;2.53;;
60847;SDS011;46681;47.696;9.140;2023-12-20T02:45:09;2.90;;;2.70;;
60847;SDS011;46681;47.696;9.140;2023-12-20T02:47:37;3.07;;;2.87;;
60847;SDS011;46681;47.696;9.140;2023-12-20T02:50:06;2.77;;;2.57;;
60847;SDS011;46681;47.696;9.140;2023-12-20T02:52:32;3.10;;;2.90;;
60847;SDS011;46681;47.696;9.140;2023-12-20T02:54:57;2.60;;;2.40;;
60847;SDS011;46681;47.696;9.140;2023-12-20T02:57:26;3.07;;;2.77;;
60847;SDS011;46681;47.696;9.140;2023-12-20T02:59:51;2.90;;;2.70;;
60847;SDS011;46681;47.696;9.140;2023-12-20T03:02:16;2.90;;;2.70;;
60847;SDS011;46681;47.696;9.140;2023-12-20T03:04:46;2.87;;;2.67;;
60847;SDS011;46681;47.696;9.140;2023-12-20T03:07:16;3.40;;;3.10;;
60847;SDS011;46681;47.696;9.140;2023-12-20T03:09:43;3.00;;;2.80;;
60847;SDS011;46681;47.696;9.140;2023-12-20T03:12:08;3.47;;;2.90;;
60847;SDS011;46681;47.696;9.140;2023-12-20T03:14:34;3.63;;;2.87;;
60847;SDS011;46681;47.696;9.140;2023-12-20T03:16:59;3.33;;;3.10;;
60847;SDS011;46681;47.696;9.140;2023-12-20T03:19:25;3.73;;;3.43;;
60847;SDS011;46681;47.696;9.140;2023-12-20T03:21:50;3.40;;;3.17;;
60847;SDS011;46681;47.696;9.140;2023-12-20T03:24:19;3.30;;;3.00;;
60847;SDS011;46681;47.696;9.140;2023-12-20T03:26:47;3.37;;;3.17;;
60847;SDS011;46681;47.696;9.140;2023-12-20T03:29:18;5.00;;;3.73;;
60847;SDS011;46681;47.696;9.140;2023-12-20T03:31:47;3.30;;;3.00;;
60847;SDS011;46681;47.696;9.140;2023-12-20T03:34:16;3.60;;;3.30;;
60847;SDS011;46681;47.696;9.140;2023-12-20T03:36:42;3.43;;;3.17;;
60847;SDS011;46681;47.696;9.140;2023-12-20T03:39:07;3.70;;;3.40;;
60847;SDS011;46681;47.696;9.140;2023-12-20T03:41:33;4.07;;;3.60;;
60847;SDS011;46681;47.696;9.140;2023-12-20T03:43:58;3.83;;;3.50;;
60847;SDS011;46681;47.696;9.140;2023-12-20T03:46:24;3.47;;;3.27;;
60847;SDS011;46681;47.696;9.140;2023-12-20T03:48:49;3.33;;;3.00;;
60847;SDS011;46681;47.696;9.140;2023-12-20T03:51:15;3.83;;;3.03;;
60847;SDS011;46681;47.696;9.140;2023-12-20T03:53:40;3.57;;;3.27;;
60847;SDS011;46681;47.696;9.140;2023-12-20T03:56:09;3.57;;;3.27;;
60847;SDS011;46681;47.696;9.140;2023-12-20T03:58:35;3.53;;;3.23;;
60847;SDS011;46681;47.696;9.140;2023-12-20T04:01:00;7.03;;;2.90;;
60847;SDS011;46681;47.696;9.140;2023-12-20T04:03:26;3.40;;;3.10;;
60847;SDS011;46681;47.696;9.140;2023-12-20T04:05:51;4.90;;;3.60;;
60847;SDS011;46681;47.696;9.140;2023-12-20T04:08:17;3.50;;;3.20;;
60847;SDS011;46681;47.696;9.140;2023-12-20T04:10:43;3.37;;;3.07;;
60847;SDS011;46681;47.696;9.140;2023-12-20T04:13:08;3.47;;;2.97;;
60847;SDS011;46681;47.696;9.140;2023-12-20T04:15:39;3.70;;;3.13;;
60847;SDS011;46681;47.696;9.140;2023-12-20T04:18:04;3.37;;;3.17;;
60847;SDS011;46681;47.696;9.140;2023-12-20T04:20:30;3.00;;;2.80;;
60847;SDS011;46681;47.696;9.140;2023-12-20T04:22:55;3.30;;;3.07;;
60847;SDS011;46681;47.696;9.140;2023-12-20T04:25:21;3.30;;;3.00;;
60847;SDS011;46681;47.696;9.140;2023-12-20T04:27:46;3.07;;;2.77;;
60847;SDS011;46681;47.696;9.140;2023-12-20T04:30:13;2.90;;;2.70;;
60847;SDS011;46681;47.696;9.140;2023-12-20T04:32:39;3.40;;;3.20;;
60847;SDS011;46681;47.696;9.140;2023-12-20T04:35:04;3.50;;;2.47;;
60847;SDS011;46681;47.696;9.140;2023-12-20T04:37:30;3.50;;;3.00;;
60847;SDS011;46681;47.696;9.140;2023-12-20T04:39:55;2.63;;;2.43;;
60847;SDS011;46681;47.696;9.140;2023-12-20T04:42:23;2.87;;;2.67;;
60847;SDS011;46681;47.696;9.140;2023-12-20T04:44:49;2.73;;;2.53;;
60847;SDS011;46681;47.696;9.140;2023-12-20T04:47:14;3.10;;;2.80;;
60847;SDS011;46681;47.696;9.140;2023-12-20T04:49:40;2.80;;;2.47;;
60847;SDS011;46681;47.696;9.140;2023-12-20T04:52:05;2.57;;;2.07;;
60847;SDS011;46681;47.696;9.140;2023-12-20T04:54:31;2.80;;;2.60;;
60847;SDS011;46681;47.696;9.140;2023-12-20T04:56:56;2.63;;;2.43;;
60847;SDS011;46681;47.696;9.140;2023-12-20T04:59:22;2.73;;;2.53;;
60847;SDS011;46681;47.696;9.140;2023-12-20T05:01:49;2.63;;;2.43;;
60847;SDS011;46681;47.696;9.140;2023-12-20T05:04:15;2.73;;;2.53;;
60847;SDS011;46681;47.696;9.140;2023-12-20T05:06:41;2.53;;;2.33;;
60847;SDS011;46681;47.696;9.140;2023-12-20T05:09:08;2.07;;;1.97;;
60847;SDS011;46681;47.696;9.140;2023-12-20T05:11:33;2.20;;;2.10;;
60847;SDS011;46681;47.696;9.140;2023-12-20T05:13:59;2.83;;;2.60;;
60847;SDS011;46681;47.696;9.140;2023-12-20T05:16:28;2.20;;;2.10;;
60847;SDS011;46681;47.696;9.140;2023-12-20T05:18:53;2.50;;;2.30;;
60847;SDS011;46681;47.696;9.140;2023-12-20T05:21:18;2.87;;;2.67;;
60847;SDS011;46681;47.696;9.140;2023-12-20T05:23:48;2.60;;;2.40;;
60847;SDS011;46681;47.696;9.140;2023-12-20T05:26:14;2.53;;;2.33;;
60847;SDS011;46681;47.696;9.140;2023-12-20T05:28:39;3.43;;;2.40;;
60847;SDS011;46681;47.696;9.140;2023-12-20T05:31:05;2.53;;;2.33;;
60847;SDS011;46681;47.696;9.140;2023-12-20T05:33:30;2.63;;;2.43;;
60847;SDS011;46681;47.696;9.140;2023-12-20T05:35:59;2.93;;;2.73;;
60847;SDS011;46681;47.696;9.140;2023-12-20T05:38:25;2.30;;;2.10;;
60847;SDS011;46681;47.696;9.140;2023-12-20T05:40:56;2.60;;;2.40;;
60847;SDS011;46681;47.696;9.140;2023-12-20T05:43:22;2.20;;;2.10;;
60847;SDS011;46681;47.696;9.140;2023-12-20T05:45:53;2.60;;;2.40;;
60847;SDS011;46681;47.696;9.140;2023-12-20T05:48:20;2.30;;;2.20;;
60847;SDS011;46681;47.696;9.140;2023-12-20T05:50:45;2.57;;;2.40;;
60847;SDS011;46681;47.696;9.140;2023-12-20T05:53:13;2.43;;;2.33;;
60847;SDS011;46681;47.696;9.140;2023-12-20T05:55:43;2.83;;;2.30;;
60847;SDS011;46681;47.696;9.140;2023-12-20T05:58:11;2.47;;;2.30;;
60847;SDS011;46681;47.696;9.140;2023-12-20T06:00:44;2.43;;;2.23;;
60847;SDS011;46681;47.696;9.140;2023-12-20T06:03:15;2.77;;;2.57;;
60847;SDS011;46681;47.696;9.140;2023-12-20T06:05:46;2.20;;;2.10;;
60847;SDS011;46681;47.696;9.140;2023-12-20T06:08:14;2.80;;;2.20;;
60847;SDS011;46681;47.696;9.140;2023-12-20T06:10:44;2.37;;;2.27;;
60847;SDS011;46681;47.696;9.140;2023-12-20T06:13:09;2.13;;;2.03;;
60847;SDS011;46681;47.696;9.140;2023-12-20T06:15:38;2.30;;;2.20;;
60847;SDS011;46681;47.696;9.140;2023-12-20T06:18:12;2.20;;;2.10;;
60847;SDS011;46681;47.696;9.140;2023-12-20T06:20:45;3.73;;;2.50;;
60847;SDS011;46681;47.696;9.140;2023-12-20T06:23:10;2.70;;;2.53;;
60847;SDS011;46681;47.696;9.140;2023-12-20T06:25:42;5.57;;;2.73;;
60847;SDS011;46681;47.696;9.140;2023-12-20T06:28:09;15.10;;;3.20;;
60847;SDS011;46681;47.696;9.140;2023-12-20T06:30:41;3.47;;;2.67;;
60847;SDS011;46681;47.696;9.140;2023-12-20T06:33:14;3.93;;;3.50;;
60847;SDS011;46681;47.696;9.140;2023-12-20T06:35:49;3.43;;;2.73;;
60847;SDS011;46681;47.696;9.140;2023-12-20T06:38:18;2.43;;;2.30;;
60847;SDS011;46681;47.696;9.140;2023-12-20T06:40:50;3.23;;;2.93;;
60847;SDS011;46681;47.696;9.140;2023-12-20T06:43:38;6.00;;;2.80;;
60847;SDS011;46681;47.696;9.140;2023-12-20T06:46:25;2.63;;;2.40;;
60847;SDS011;46681;47.696;9.140;2023-12-20T06:49:16;2.67;;;2.47;;
60847;SDS011;46681;47.696;9.140;2023-12-20T06:51:42;2.77;;;2.57;;
60847;SDS011;46681;47.696;9.140;2023-12-20T06:54:17;2.77;;;2.57;;
60847;SDS011;46681;47.696;9.140;2023-12-20T06:56:45;2.50;;;2.30;;
60847;SDS011;46681;47.696;9.140;2023-12-20T06:59:12;2.80;;;2.60;;
60847;SDS011;46681;47.696;9.140;2023-12-20T07:01:56;2.40;;;2.30;;
60847;SDS011;46681;47.696;9.140;2023-12-20T07:04:30;2.57;;;2.10;;
60847;SDS011;46681;47.696;9.140;2023-12-20T07:07:11;3.27;;;2.40;;
60847;SDS011;46681;47.696;9.140;2023-12-20T07:12:24;2.50;;;2.33;;
60847;SDS011;46681;47.696;9.140;2023-12-20T07:14:51;2.23;;;2.13;;
60847;SDS011;46681;47.696;9.140;2023-12-20T07:17:27;2.63;;;2.43;;
60847;SDS011;46681;47.696;9.140;2023-12-20T07:19:58;2.50;;;2.30;;
60847;SDS011;46681;47.696;9.140;2023-12-20T07:22:35;2.17;;;2.07;;
60847;SDS011;46681;47.696;9.140;2023-12-20T07:25:01;2.30;;;2.20;;
60847;SDS011;46681;47.696;9.140;2023-12-20T07:27:39;2.63;;;2.43;;
60847;SDS011;46681;47.696;9.140;2023-12-20T07:30:17;2.40;;;2.30;;
60847;SDS011;46681;47.696;9.140;2023-12-20T07:32:51;2.60;;;2.50;;
60847;SDS011;46681;47.696;9.140;2023-12-20T07:35:21;2.37;;;2.27;;
60847;SDS011;46681;47.696;9.140;2023-12-20T07:37:58;2.53;;;2.33;;
60847;SDS011;46681;47.696;9.140;2023-12-20T07:40:34;2.43;;;2.23;;
60847;SDS011;46681;47.696;9.140;2023-12-20T07:43:00;2.67;;;2.47;;
60847;SDS011;46681;47.696;9.140;2023-12-20T07:45:30;2.50;;;2.40;;
60847;SDS011;46681;47.696;9.140;2023-12-20T07:47:58;2.93;;;2.73;;
60847;SDS011;46681;47.696;9.140;2023-12-20T07:50:31;2.70;;;2.50;;
60847;SDS011;46681;47.696;9.140;2023-12-20T07:53:05;2.83;;;2.63;;
60847;SDS011;46681;47.696;9.140;2023-12-20T07:55:35;2.40;;;2.20;;
60847;SDS011;46681;47.696;9.140;2023-12-20T07:58:09;2.30;;;2.20;;
60847;SDS011;46681;47.696;9.140;2023-12-20T08:00:46;3.10;;;2.90;;
60847;SDS011;46681;47.696;9.140;2023-12-20T08:03:12;3.07;;;2.87;;
60847;SDS011;46681;47.696;9.140;2023-12-20T08:05:57;2.87;;;2.67;;
60847;SDS011;46681;47.696;9.140;2023-12-20T08:08:23;2.80;;;2.63;;
60847;SDS011;46681;47.696;9.140;2023-12-20T08:11:00;2.40;;;2.30;;
60847;SDS011;46681;47.696;9.140;2023-12-20T08:13:30;2.60;;;2.50;;
60847;SDS011;46681;47.696;9.140;2023-12-20T08:16:09;2.73;;;2.53;;
60847;SDS011;46681;47.696;9.140;2023-12-20T08:18:34;2.87;;;2.67;;
60847;SDS011;46681;47.696;9.140;2023-12-20T08:21:01;2.70;;;2.50;;
60847;SDS011;46681;47.696;9.140;2023-12-20T08:23:28;2.50;;;2.40;;
60847;SDS011;46681;47.696;9.140;2023-12-20T08:26:13;3.93;;;1.97;;
60847;SDS011;46681;47.696;9.140;2023-12-20T08:28:39;3.73;;;2.30;;
60847;SDS011;46681;47.696;9.140;2023-12-20T08:31:13;2.70;;;2.50;;
60847;SDS011;46681;47.696;9.140;2023-12-20T08:33:40;2.33;;;2.23;;
60847;SDS011;46681;47.696;9.140;2023-12-20T08:36:07;2.20;;;2.10;;
60847;SDS011;46681;47.696;9.140;2023-12-20T08:38:40;1.97;;;1.87;;
60847;SDS011;46681;47.696;9.140;2023-12-20T08:41:10;1.93;;;1.83;;
60847;SDS011;46681;47.696;9.140;2023-12-20T08:43:39;2.00;;;1.90;;
60847;SDS011;46681;47.696;9.140;2023-12-20T08:46:04;2.00;;;1.90;;
60847;SDS011;46681;47.696;9.140;2023-12-20T08:48:39;3.70;;;2.17;;
60847;SDS011;46681;47.696;9.140;2023-12-20T08:51:17;2.03;;;1.93;;
60847;SDS011;46681;47.696;9.140;2023-12-20T08:54:02;1.90;;;1.80;;
60847;SDS011;46681;47.696;9.140;2023-12-20T08:56:36;1.83;;;1.73;;
60847;SDS011;46681;47.696;9.140;2023-12-20T08:59:13;2.07;;;1.90;;
60847;SDS011;46681;47.696;9.140;2023-12-20T09:01:52;2.20;;;2.10;;
60847;SDS011;46681;47.696;9.140;2023-12-20T09:04:19;2.00;;;1.83;;
60847;SDS011;46681;47.696;9.140;2023-12-20T09:06:44;2.07;;;1.97;;
60847;SDS011;46681;47.696;9.140;2023-12-20T09:09:17;2.30;;;2.20;;
60847;SDS011;46681;47.696;9.140;2023-12-20T09:11:49;2.40;;;2.30;;
60847;SDS011;46681;47.696;9.140;2023-12-20T09:14:15;2.27;;;2.17;;
60847;SDS011;46681;47.696;9.140;2023-12-20T09:16:45;2.33;;;2.23;;
60847;SDS011;46681;47.696;9.140;2023-12-20T09:19:21;2.23;;;2.13;;
60847;SDS011;46681;47.696;9.140;2023-12-20T09:21:51;2.03;;;1.83;;
60847;SDS011;46681;47.696;9.140;2023-12-20T09:24:19;2.20;;;2.10;;
60847;SDS011;46681;47.696;9.140;2023-12-20T09:27:02;1.90;;;1.80;;
60847;SDS011;46681;47.696;9.140;2023-12-20T09:29:30;2.10;;;2.00;;
60847;SDS011;46681;47.696;9.140;2023-12-20T09:32:12;2.00;;;1.90;;
60847;SDS011;46681;47.696;9.140;2023-12-20T09:34:44;1.73;;;1.63;;
60847;SDS011;46681;47.696;9.140;2023-12-20T09:37:27;2.00;;;1.90;;
60847;SDS011;46681;47.696;9.140;2023-12-20T09:39:54;1.93;;;1.83;;
60847;SDS011;46681;47.696;9.140;2023-12-20T09:42:25;1.70;;;1.60;;
60847;SDS011;46681;47.696;9.140;2023-12-20T09:45:25;2.00;;;1.90;;
60847;SDS011;46681;47.696;9.140;2023-12-20T09:48:00;1.70;;;1.60;;
60847;SDS011;46681;47.696;9.140;2023-12-20T09:50:50;1.80;;;1.70;;
60847;SDS011;46681;47.696;9.140;2023-12-20T09:53:16;1.73;;;1.63;;
60847;SDS011;46681;47.696;9.140;2023-12-20T09:55:54;1.60;;;1.57;;
60847;SDS011;46681;47.696;9.140;2023-12-20T09:58:31;1.73;;;1.67;;
60847;SDS011;46681;47.696;9.140;2023-12-20T10:00:58;1.40;;;1.40;;
60847;SDS011;46681;47.696;9.140;2023-12-20T10:03:25;1.50;;;1.40;;
60847;SDS011;46681;47.696;9.140;2023-12-20T10:05:57;1.97;;;1.87;;
60847;SDS011;46681;47.696;9.140;2023-12-20T10:08:30;2.00;;;1.90;;
60847;SDS011;46681;47.696;9.140;2023-12-20T10:10:57;1.50;;;1.40;;
60847;SDS011;46681;47.696;9.140;2023-12-20T10:13:23;1.30;;;1.20;;
60847;SDS011;46681;47.696;9.140;2023-12-20T10:15:49;1.40;;;1.40;;
60847;SDS011;46681;47.696;9.140;2023-12-20T10:18:15;2.00;;;1.90;;
60847;SDS011;46681;47.696;9.140;2023-12-20T10:20:51;1.70;;;1.60;;
60847;SDS011;46681;47.696;9.140;2023-12-20T10:23:20;1.60;;;1.60;;
60847;SDS011;46681;47.696;9.140;2023-12-20T10:26:01;2.87;;;1.87;;
60847;SDS011;46681;47.696;9.140;2023-12-20T10:28:28;1.97;;;1.87;;
60847;SDS011;46681;47.696;9.140;2023-12-20T10:31:15;1.70;;;1.70;;
60847;SDS011;46681;47.696;9.140;2023-12-20T10:34:11;1.57;;;1.47;;
60847;SDS011;46681;47.696;9.140;2023-12-20T10:36:38;1.80;;;1.70;;
60847;SDS011;46681;47.696;9.140;2023-12-20T10:39:15;2.30;;;1.70;;
60847;SDS011;46681;47.696;9.140;2023-12-20T10:41:51;1.60;;;1.50;;
60847;SDS011;46681;47.696;9.140;2023-12-20T10:44:16;1.97;;;1.40;;
60847;SDS011;46681;47.696;9.140;2023-12-20T10:46:48;1.57;;;1.47;;
60847;SDS011;46681;47.696;9.140;2023-12-20T10:49:20;1.53;;;1.53;;
60847;SDS011;46681;47.696;9.140;2023-12-20T10:52:04;1.67;;;1.60;;
60847;SDS011;46681;47.696;9.140;2023-12-20T10:54:50;1.43;;;1.33;;
60847;SDS011;46681;47.696;9.140;2023-12-20T10:57:19;1.80;;;1.70;;
60847;SDS011;46681;47.696;9.140;2023-12-20T10:59:53;1.73;;;1.63;;
60847;SDS011;46681;47.696;9.140;2023-12-20T11:02:36;1.30;;;1.30;;
60847;SDS011;46681;47.696;9.140;2023-12-20T11:05:19;1.60;;;1.50;;
60847;SDS011;46681;47.696;9.140;2023-12-20T11:08:08;1.17;;;1.17;;
60847;SDS011;46681;47.696;9.140;2023-12-20T11:13:58;1.10;;;1.10;;
60847;SDS011;46681;47.696;9.140;2023-12-20T11:16:38;1.53;;;1.30;;
60847;SDS011;46681;47.696;9.140;2023-12-20T11:19:07;1.50;;;1.40;;
60847;SDS011;46681;47.696;9.140;2023-12-20T11:21:36;1.17;;;1.17;;
60847;SDS011;46681;47.696;9.140;2023-12-20T11:24:12;1.50;;;1.40;;
60847;SDS011;46681;47.696;9.140;2023-12-20T11:26:49;1.10;;;1.10;;
60847;SDS011;46681;47.696;9.140;2023-12-20T11:29:34;1.20;;;1.20;;
60847;SDS011;46681;47.696;9.140;2023-12-20T11:35:00;1.30;;;1.20;;
60847;SDS011;46681;47.696;9.140;2023-12-20T11:38:07;1.00;;;1.00;;
60847;SDS011;46681;47.696;9.140;2023-12-20T11:40:42;1.13;;;1.10;;
60847;SDS011;46681;47.696;9.140;2023-12-20T11:46:28;1.07;;;1.03;;
60847;SDS011;46681;47.696;9.140;2023-12-20T11:48:58;0.70;;;0.70;;
60847;SDS011;46681;47.696;9.140;2023-12-20T11:51:31;0.80;;;0.80;;
60847;SDS011;46681;47.696;9.140;2023-12-20T11:57:00;0.97;;;0.97;;
60847;SDS011;46681;47.696;9.140;2023-12-20T11:59:40;1.07;;;0.97;;
60847;SDS011;46681;47.696;9.140;2023-12-20T12:02:28;0.60;;;0.60;;
60847;SDS011;46681;47.696;9.140;2023-12-20T12:08:31;0.70;;;0.70;;
60847;SDS011;46681;47.696;9.140;2023-12-20T12:11:02;0.90;;;0.90;;
60847;SDS011;46681;47.696;9.140;2023-12-20T12:13:30;0.70;;;0.70;;
60847;SDS011;46681;47.696;9.140;2023-12-20T12:16:18;0.90;;;0.90;;
60847;SDS011;46681;47.696;9.140;2023-12-20T12:19:05;1.23;;;0.80;;
60847;SDS011;46681;47.696;9.140;2023-12-20T12:24:47;1.10;;;0.90;;
60847;SDS011;46681;47.696;9.140;2023-12-20T12:27:22;1.80;;;1.03;;
60847;SDS011;46681;47.696;9.140;2023-12-20T12:32:39;0.73;;;0.73;;
60847;SDS011;46681;47.696;9.140;2023-12-20T12:35:14;0.90;;;0.90;;
60847;SDS011;46681;47.696;9.140;2023-12-20T12:37:58;0.70;;;0.70;;
60847;SDS011;46681;47.696;9.140;2023-12-20T12:40:40;0.87;;;0.87;;
60847;SDS011;46681;47.696;9.140;2023-12-20T12:43:31;0.67;;;0.67;;
60847;SDS011;46681;47.696;9.140;2023-12-20T12:46:02;0.80;;;0.80;;
60847;SDS011;46681;47.696;9.140;2023-12-20T12:48:33;0.67;;;0.67;;
60847;SDS011;46681;47.696;9.140;2023-12-20T12:50:59;0.83;;;0.83;;
60847;SDS011;46681;47.696;9.140;2023-12-20T12:53:38;0.80;;;0.70;;
60847;SDS011;46681;47.696;9.140;2023-12-20T12:56:05;0.83;;;0.83;;
60847;SDS011;46681;47.696;9.140;2023-12-20T12:58:45;0.60;;;0.60;;
60847;SDS011;46681;47.696;9.140;2023-12-20T13:01:17;0.70;;;0.70;;
60847;SDS011;46681;47.696;9.140;2023-12-20T13:03:45;0.80;;;0.80;;
60847;SDS011;46681;47.696;9.140;2023-12-20T13:06:16;0.80;;;0.80;;
60847;SDS011;46681;47.696;9.140;2023-12-20T13:08:45;1.00;;;1.00;;
60847;SDS011;46681;47.696;9.140;2023-12-20T13:11:15;0.90;;;0.90;;
60847;SDS011;46681;47.696;9.140;2023-12-20T13:14:05;0.90;;;0.90;;
60847;SDS011;46681;47.696;9.140;2023-12-20T13:16:42;0.80;;;0.80;;
60847;SDS011;46681;47.696;9.140;2023-12-20T13:19:15;1.13;;;0.87;;
60847;SDS011;46681;47.696;9.140;2023-12-20T13:21:44;1.50;;;0.83;;
60847;SDS011;46681;47.696;9.140;2023-12-20T13:24:46;0.70;;;0.70;;
60847;SDS011;46681;47.696;9.140;2023-12-20T13:27:17;0.80;;;0.80;;
60847;SDS011;46681;47.696;9.140;2023-12-20T13:29:52;0.67;;;0.67;;
60847;SDS011;46681;47.696;9.140;2023-12-20T13:32:17;0.83;;;0.70;;
60847;SDS011;46681;47.696;9.140;2023-12-20T13:34:48;1.00;;;0.60;;
60847;SDS011;46681;47.696;9.140;2023-12-20T13:37:22;0.77;;;0.70;;
60847;SDS011;46681;47.696;9.140;2023-12-20T13:39:48;1.07;;;0.60;;
60847;SDS011;46681;47.696;9.140;2023-12-20T13:42:15;0.70;;;0.70;;
60847;SDS011;46681;47.696;9.140;2023-12-20T13:44:43;0.70;;;0.70;;
60847;SDS011;46681;47.696;9.140;2023-12-20T13:47:14;1.17;;;0.80;;
60847;SDS011;46681;47.696;9.140;2023-12-20T13:49:50;0.63;;;0.60;;
60847;SDS011;46681;47.696;9.140;2023-12-20T13:52:24;0.70;;;0.70;;
60847;SDS011;46681;47.696;9.140;2023-12-20T13:54:53;0.70;;;0.70;;
60847;SDS011;46681;47.696;9.140;2023-12-20T13:57:19;0.73;;;0.70;;
60847;SDS011;46681;47.696;9.140;2023-12-20T13:59:59;1.17;;;0.60;;
60847;SDS011;46681;47.696;9.140;2023-12-20T14:02:27;0.60;;;0.60;;
60847;SDS011;46681;47.696;9.140;2023-12-20T14:04:52;0.70;;;0.70;;
60847;SDS011;46681;47.696;9.140;2023-12-20T14:07:18;0.70;;;0.70;;
60847;SDS011;46681;47.696;9.140;2023-12-20T14:09:56;0.70;;;0.70;;
60847;SDS011;46681;47.696;9.140;2023-12-20T14:12:23;0.80;;;0.80;;
60847;SDS011;46681;47.696;9.140;2023-12-20T14:14:48;1.70;;;0.90;;
60847;SDS011;46681;47.696;9.140;2023-12-20T14:17:22;0.63;;;0.63;;
60847;SDS011;46681;47.696;9.140;2023-12-20T14:19:56;1.70;;;1.10;;
60847;SDS011;46681;47.696;9.140;2023-12-20T14:22:27;1.40;;;0.80;;
60847;SDS011;46681;47.696;9.140;2023-12-20T14:24:53;0.80;;;0.80;;
60847;SDS011;46681;47.696;9.140;2023-12-20T14:27:24;0.90;;;0.90;;
60847;SDS011;46681;47.696;9.140;2023-12-20T14:29:50;1.00;;;0.90;;
60847;SDS011;46681;47.696;9.140;2023-12-20T14:32:29;1.00;;;1.00;;
60847;SDS011;46681;47.696;9.140;2023-12-20T14:34:59;2.13;;;1.10;;
60847;SDS011;46681;47.696;9.140;2023-12-20T14:37:30;1.10;;;1.00;;
60847;SDS011;46681;47.696;9.140;2023-12-20T14:40:01;0.83;;;0.83;;
60847;SDS011;46681;47.696;9.140;2023-12-20T14:42:36;1.00;;;1.00;;
60847;SDS011;46681;47.696;9.140;2023-12-20T14:45:06;1.70;;;0.93;;
60847;SDS011;46681;47.696;9.140;2023-12-20T14:47:39;1.00;;;0.90;;
60847;SDS011;46681;47.696;9.140;2023-12-20T14:50:08;1.20;;;1.10;;
60847;SDS011;46681;47.696;9.140;2023-12-20T14:52:38;2.57;;;1.10;;
60847;SDS011;46681;47.696;9.140;2023-12-20T14:55:10;1.17;;;1.10;;
60847;SDS011;46681;47.696;9.140;2023-12-20T14:57:55;1.00;;;1.00;;
60847;SDS011;46681;47.696;9.140;2023-12-20T15:00:26;0.93;;;0.93;;
60847;SDS011;46681;47.696;9.140;2023-12-20T15:03:00;2.03;;;1.63;;
60847;SDS011;46681;47.696;9.140;2023-12-20T15:05:27;2.10;;;1.20;;
60847;SDS011;46681;47.696;9.140;2023-12-20T15:08:09;1.53;;;1.43;;
60847;SDS011;46681;47.696;9.140;2023-12-20T15:10:42;0.90;;;0.80;;
60847;SDS011;46681;47.696;9.140;2023-12-20T15:13:15;1.30;;;1.20;;
60847;SDS011;46681;47.696;9.140;2023-12-20T15:15:42;1.00;;;1.00;;
60847;SDS011;46681;47.696;9.140;2023-12-20T15:18:16;1.53;;;1.00;;
60847;SDS011;46681;47.696;9.140;2023-12-20T15:21:08;1.00;;;1.00;;
60847;SDS011;46681;47.696;9.140;2023-12-20T15:23:50;1.77;;;1.37;;
60847;SDS011;46681;47.696;9.140;2023-12-20T15:26:24;1.30;;;0.97;;
60847;SDS011;46681;47.696;9.140;2023-12-20T15:29:03;2.33;;;1.10;;
60847;SDS011;46681;47.696;9.140;2023-12-20T15:31:30;2.83;;;1.27;;
60847;SDS011;46681;47.696;9.140;2023-12-20T15:33:56;1.20;;;1.07;;